Arbor Realty Trust Inc (ABR) Latest Bloomsberg Price


Mffais Ranking #1244 Overall / #26 Industry
Industry: Mortgage Finance

Number of Companies: 42 (Ranking #2427 Overall/#39 Industry)
Inflow: $ 2,755 (K) (Ranking #2468 Overall/#39 Industry)
Outflow: $ -2,650 (K)
Mffais Flow: $ 105 (K) (Ranking #1244 Overall/#26 Industry)


Receive a FREE weekly executive review of stocks moving into the top 10, taking the top industy spot or moving up within their industry. Sent directly to your Inbox every Saturday. Sign up today and get last week's review immediately sent to you.

We value and respect your privacy. Please read our Terms and Conditions which states our firm commitment to your privacy. Your email address will not be shared with a third party, nor will it be sold or used for purposes other than subscription for the weekly review.

Owner CPOR Shares Action Qty Chg Invested (K) Total Current Value (K)
Wasatch Advisors Inc 2016-03-31 1,927,885 Added More 132,106 $ 894 $ 13,051
Punch Associates Investment Management Inc 2016-06-30 1,441,992 Added More 71,613 $ 514 $ 10,367
Blackrock Inc 2016-06-30 54,349 New Holding 54,349 $ 390 $ 390
Lmr Partners Llp 2016-06-30 25,693 New Holding 25,693 $ 184 $ 184
Benchmark Capital Advisors 2016-06-30 393,783 Added More 24,400 $ 175 $ 2,831
Nationwide Fund Advisors 2016-06-30 20,720 New Holding 20,720 $ 148 $ 148
Baird Financial Group Inc 2016-03-31 156,549 Added More 14,846 $ 100 $ 1,059
Envestnet Asset Management Inc 2016-03-31 12,415 New Holding 12,415 $ 84 $ 84
Panagora Asset Management Inc 2016-03-31 10,870 New Holding 10,870 $ 73 $ 73
Northwestern Mutual Wealth Management Co 2016-03-31 10,140 New Holding 10,140 $ 68 $ 68
Clarivest Asset Management Llc 2016-06-30 124,113 Added More 4,600 $ 33 $ 892
Northern Trust Corp 2016-03-31 114,449 Added More 3,659 $ 24 $ 774
Mackenzie Financial Corp 2016-03-31 13,867 Added More 3,308 $ 22 $ 93
American International Group Inc 2016-03-31 7,463 Added More 3,063 $ 20 $ 50
Ladenburg Thalmann Financial Services Inc 2016-03-31 2,000 New Holding 2,000 $ 13 $ 13
Tower Research Capital Llc Trc 2016-06-30 277 New Holding 277 $ 1 $ 1
Metlife Securities Inc 2016-06-30 250 New Holding 250 $ 1 $ 1
Opus Capital Group Llc 2016-06-30 13,370 Added More 158 $ 1 $ 96
State Of New Jersey Common Pension Fund D 2016-06-30 175,000 No Change 0 $ 0 $ 1,258
Pnc Financial Services Group Inc 2016-06-30 22,000 No Change 0 $ 0 $ 158
Fuller Thaler Asset Management Inc 2016-06-30 264,100 No Change 0 $ 0 $ 1,898
Hillsdale Investment Management Inc 2016-03-31 50,500 No Change 0 $ 0 $ 341
Clear Harbor Asset Management Llc 2016-06-30 17,200 No Change 0 $ 0 $ 123
North Star Investment Management Corp 2016-06-30 500 No Change 0 $ 0 $ 3
Salzhauer Michael 2016-06-30 220,253 No Change 0 $ 0 $ 1,583
Sii Investments Inc Wi 2016-06-30 83,600 No Change 0 $ 0 $ 601
Sterneck Capital Management Llc 2016-03-31 10,000 No Change 0 $ 0 $ 67
Omega Advisors Inc 2016-03-31 70,000 No Change 0 $ 0 $ 473
Guggenheim Capital Llc 2016-03-31 22,172 Sold Some -148 $ -1 $ 150
Simplex Trading Llc 2016-06-30 0 Sold All -538 $ -3 $ 0
First Trust Advisors Lp 2016-06-30 21,518 Sold Some -1,174 $ -8 $ 154
Jacobs Levy Equity Management Inc 2016-03-31 20,500 Sold Some -2,200 $ -14 $ 138
Blackrock Japan Co Ltd 2016-06-30 0 Sold All -2,865 $ -20 $ 0
Two Sigma Advisers Llc 2016-03-31 115,495 Sold Some -3,565 $ -24 $ 781
Menta Capital Llc 2016-03-31 58,630 Sold Some -4,000 $ -27 $ 396
Cutler Group Lp 2016-06-30 1,322 Sold Some -4,988 $ -35 $ 9
Creative Planning 2016-06-30 0 Sold All -5,000 $ -35 $ 0
California Public Employees Retirement System 2016-06-30 242,700 Sold Some -12,000 $ -86 $ 1,745
Gsa Capital Partners Llp 2016-06-30 0 Sold All -19,900 $ -143 $ 0
Forward Management Llc 2016-06-30 0 Sold All -69,366 $ -498 $ 0
Advisors Capital Management Llc 2016-03-31 13,775 Sold Some -113,450 $ -768 $ 93
Russell Frank Co 2016-03-31 3,700 Sold Some -145,086 $ -982 $ 25